Time;durP1;ratioP1;P1;durP2;ratioP2;P2;SDS_P1;SDS_P2;PMS_P1;PMS_P2;Temp;Humidity;BMP_temperature;BMP_pressure;BME280_temperature;BME280_humidity;BME280_pressure;Samples;Min_cycle;Max_cycle;Signal;HPM_P1;HPM_P2
2021/09/03 00:00:10;;;;;;;27.48;17.42;;;18.80;99.90;;;;;;5054637;28;20040;-78
2021/09/03 00:02:37;;;;;;;25.90;18.30;;;18.80;99.90;;;;;;5054592;28;20028;-78
2021/09/03 00:05:06;;;;;;;23.73;17.42;;;18.70;99.90;;;;;;5054277;28;20417;-79
2021/09/03 00:07:32;;;;;;;22.88;17.02;;;18.40;99.90;;;;;;5053108;28;20128;-79
2021/09/03 00:09:58;;;;;;;;;;;18.10;99.90;;;;;;5053591;28;20056;-79
2021/09/03 00:12:23;;;;;;;25.15;18.35;;;18.00;99.90;;;;;;5054989;28;19927;-77
2021/09/03 00:14:49;;;;;;;;;;;17.70;99.90;;;;;;5054734;28;20092;-79
2021/09/03 00:17:15;;;;;;;25.70;16.83;;;17.90;99.90;;;;;;5053024;28;19943;-78
2021/09/03 00:19:41;;;;;;;;;;;18.20;99.90;;;;;;5053395;28;20025;-78
2021/09/03 00:22:06;;;;;;;25.10;17.75;;;18.40;99.90;;;;;;5054488;28;19908;-77
2021/09/03 00:24:32;;;;;;;;;;;18.20;99.90;;;;;;5054609;28;20096;-78
2021/09/03 00:26:58;;;;;;;24.25;17.23;;;18.10;99.90;;;;;;5054228;28;19915;-77
2021/09/03 00:29:23;;;;;;;;;;;17.80;99.90;;;;;;5054505;28;20036;-77
2021/09/03 00:31:49;;;;;;;26.80;18.30;;;17.70;99.90;;;;;;5054263;28;20285;-78
2021/09/03 00:34:15;;;;;;;;;;;17.60;99.90;;;;;;5054458;28;20020;-78
2021/09/03 00:36:43;;;;;;;29.52;17.58;;;17.90;99.90;;;;;;5053948;28;19904;-78
2021/09/03 00:39:08;;;;;;;26.75;17.23;;;17.90;99.90;;;;;;5053857;28;20104;-79
2021/09/03 00:41:34;;;;;;;;;;;18.20;99.90;;;;;;5054206;28;20558;-78
2021/09/03 00:44:00;;;;;;;25.13;16.67;;;18.20;99.90;;;;;;5054048;28;20311;-77
2021/09/03 00:46:25;;;;;;;;;;;18.10;99.90;;;;;;5054088;28;20508;-79
2021/09/03 00:48:51;;;;;;;27.33;18.52;;;17.80;99.90;;;;;;5052454;28;19905;-79
2021/09/03 00:51:17;;;;;;;;;;;17.60;99.90;;;;;;5054422;28;20021;-79
2021/09/03 00:53:43;;;;;;;26.98;18.75;;;17.40;99.90;;;;;;5053767;28;19908;-78
2021/09/03 00:56:08;;;;;;;;;;;17.20;99.90;;;;;;5053997;28;20107;-79
2021/09/03 00:58:34;;;;;;;27.77;19.83;;;17.20;99.90;;;;;;5053545;28;19984;-78
2021/09/03 01:01:00;;;;;;;;;;;17.30;99.90;;;;;;5053977;28;20043;-77
2021/09/03 01:03:25;;;;;;;29.75;19.00;;;17.20;99.90;;;;;;5053414;28;19912;-77
2021/09/03 01:05:51;;;;;;;;;;;17.20;99.90;;;;;;5053767;28;20053;-79
2021/09/03 01:08:17;;;;;;;28.52;19.95;;;17.10;99.90;;;;;;5052138;28;19904;-80
2021/09/03 01:10:44;;;;;;;28.25;20.10;;;17.10;99.90;;;;;;5053570;28;20128;-81
2021/09/03 01:13:10;;;;;;;;;;;16.90;99.90;;;;;;5053744;28;20493;-81
2021/09/03 01:15:36;;;;;;;27.65;18.42;;;16.90;99.90;;;;;;5052015;28;19905;-81
2021/09/03 01:18:01;;;;;;;;;;;16.80;99.90;;;;;;5054093;28;20438;-81
2021/09/03 01:20:28;;;;;;;29.63;19.92;;;16.90;99.90;;;;;;5053279;28;19905;-81
2021/09/03 01:22:53;;;;;;;26.20;18.40;;;16.80;99.90;;;;;;5053226;28;20446;-81
2021/09/03 01:25:20;;;;;;;;;;;16.90;99.90;;;;;;5053558;28;20060;-82
2021/09/03 01:27:45;;;;;;;29.40;18.08;;;17.00;99.90;;;;;;5053115;28;19915;-81
2021/09/03 01:30:15;;;;;;;;;;;16.90;99.90;;;;;;5052340;28;20017;-81
2021/09/03 01:32:42;;;;;;;26.10;18.08;;;16.90;99.90;;;;;;5053219;28;19996;-80
2021/09/03 01:35:08;;;;;;;29.02;19.48;;;16.90;99.90;;;;;;5053071;28;20101;-80
2021/09/03 01:37:34;;;;;;;36.88;20.52;;;17.20;99.90;;;;;;5053246;28;20021;-81
2021/09/03 01:40:00;;;;;;;;;;;17.30;99.90;;;;;;5052214;28;20029;-81
2021/09/03 01:42:26;;;;;;;33.00;19.63;;;17.40;99.90;;;;;;5053275;28;20384;-80
2021/09/03 01:44:51;;;;;;;;;;;17.40;99.90;;;;;;5053447;28;20079;-81
2021/09/03 01:47:17;;;;;;;28.88;18.02;;;17.20;99.90;;;;;;5052934;28;19913;-80
2021/09/03 01:49:43;;;;;;;;;;;17.00;99.90;;;;;;5053367;28;20474;-80
2021/09/03 01:52:09;;;;;;;30.00;18.55;;;16.90;99.90;;;;;;5055772;28;20309;-81
2021/09/03 01:54:34;;;;;;;;;;;16.80;99.90;;;;;;5057466;28;20477;-80
2021/09/03 01:57:00;;;;;;;35.72;20.13;;;16.70;99.90;;;;;;5057025;28;19960;-81
2021/09/03 01:59:26;;;;;;;;;;;16.70;99.90;;;;;;5057578;28;20029;-81
2021/09/03 02:01:52;;;;;;;28.25;19.58;;;16.70;99.90;;;;;;5057190;28;19943;-81
2021/09/03 02:04:18;;;;;;;33.83;18.58;;;16.80;99.90;;;;;;5055392;28;20041;-81
2021/09/03 02:06:43;;;;;;;29.30;19.52;;;16.70;99.90;;;;;;5056737;28;20112;-81
2021/09/03 02:09:09;;;;;;;;;;;16.80;99.90;;;;;;5057250;28;20064;-81
2021/09/03 02:11:35;;;;;;;27.65;18.27;;;16.80;99.90;;;;;;5056706;28;19904;-81
2021/09/03 02:14:00;;;;;;;;;;;16.70;99.90;;;;;;5057199;28;20074;-81
2021/09/03 02:16:26;;;;;;;28.80;17.75;;;16.80;99.90;;;;;;5056675;28;19938;-81
2021/09/03 02:18:52;;;;;;;;;;;17.10;99.90;;;;;;5057455;28;20068;-81
2021/09/03 02:21:18;;;;;;;29.50;19.27;;;17.10;99.90;;;;;;5056550;28;19911;-81
2021/09/03 02:23:43;;;;;;;;;;;17.00;99.90;;;;;;5056945;28;20064;-81
2021/09/03 02:26:09;;;;;;;30.58;19.45;;;16.60;99.90;;;;;;5056356;28;19909;-80
2021/09/03 02:28:35;;;;;;;30.60;19.55;;;16.50;99.90;;;;;;5056373;28;20480;-81
2021/09/03 02:31:01;;;;;;;;;;;16.40;99.90;;;;;;5055512;28;20025;-80
2021/09/03 02:33:27;;;;;;;27.48;19.17;;;16.40;99.90;;;;;;5056484;28;19968;-81
2021/09/03 02:35:52;;;;;;;;;;;16.30;99.90;;;;;;5055419;28;20025;-81
2021/09/03 02:38:18;;;;;;;29.27;18.83;;;16.30;99.90;;;;;;5056267;28;19912;-80
2021/09/03 02:40:44;;;;;;;;;;;16.40;99.90;;;;;;5056642;28;20096;-81
2021/09/03 02:43:09;;;;;;;28.27;17.45;;;16.40;99.90;;;;;;5056157;28;19911;-81
2021/09/03 02:45:35;;;;;;;;;;;16.50;99.90;;;;;;5056551;28;20025;-80
2021/09/03 02:48:01;;;;;;;26.45;17.80;;;16.90;99.90;;;;;;5055980;28;19958;-81
2021/09/03 02:50:28;;;;;;;;;;;17.00;99.90;;;;;;5056635;28;20100;-80
2021/09/03 02:52:56;;;;;;;28.00;17.48;;;16.70;99.90;;;;;;5054652;28;19943;-80
2021/09/03 02:55:22;;;;;;;30.17;19.23;;;16.50;99.90;;;;;;5056227;28;20021;-81
2021/09/03 02:57:48;;;;;;;27.98;17.88;;;16.30;99.90;;;;;;5055867;28;20025;-80
2021/09/03 03:00:14;;;;;;;;;;;16.30;99.90;;;;;;5056275;28;20052;-80
2021/09/03 03:02:40;;;;;;;28.67;18.77;;;16.30;99.90;;;;;;5054530;28;19909;-81
2021/09/03 03:05:06;;;;;;;;;;;16.20;99.90;;;;;;5055798;28;20064;-81
2021/09/03 03:07:32;;;;;;;29.48;17.40;;;16.10;99.90;;;;;;5055751;28;19908;-81
2021/09/03 03:09:57;;;;;;;27.55;19.13;;;16.10;99.90;;;;;;5054398;28;20025;-81
2021/09/03 03:12:23;;;;;;;;;;;16.30;99.90;;;;;;5054750;28;20032;-80
2021/09/03 03:14:49;;;;;;;27.35;16.77;;;16.60;99.90;;;;;;5055590;28;19904;-81
2021/09/03 03:17:17;;;;;;;26.08;16.67;;;16.80;99.90;;;;;;5055612;28;20390;-80
2021/09/03 03:19:43;;;;;;;26.55;17.90;;;16.70;99.90;;;;;;5055531;28;20057;-80
2021/09/03 03:22:09;;;;;;;26.02;18.00;;;16.60;99.90;;;;;;5055387;28;20116;-82
2021/09/03 03:24:35;;;;;;;30.52;17.40;;;16.50;99.90;;;;;;5055309;28;20021;-81
2021/09/03 03:27:01;;;;;;;;;;;16.10;99.90;;;;;;5055632;28;20546;-81
2021/09/03 03:29:27;;;;;;;29.35;18.08;;;16.00;99.90;;;;;;5055298;28;20428;-79
2021/09/03 03:31:52;;;;;;;;;;;16.00;99.90;;;;;;5054317;28;20083;-80
2021/09/03 03:34:18;;;;;;;26.45;16.10;;;16.20;99.90;;;;;;5055196;28;19905;-80
2021/09/03 03:36:44;;;;;;;27.17;17.77;;;16.40;99.90;;;;;;5053828;28;20036;-82
2021/09/03 03:39:10;;;;;;;;;;;16.30;99.90;;;;;;5055905;28;20024;-81
2021/09/03 03:41:35;;;;;;;30.17;19.50;;;16.10;99.90;;;;;;5055344;28;20480;-80
2021/09/03 03:44:01;;;;;;;31.42;20.05;;;16.00;99.90;;;;;;5055013;28;20029;-82
2021/09/03 03:46:27;;;;;;;;;;;15.80;99.90;;;;;;5055297;28;20063;-81
2021/09/03 03:48:53;;;;;;;28.23;17.73;;;15.80;99.90;;;;;;5053619;28;19916;-80
2021/09/03 03:51:20;;;;;;;;;;;15.90;99.90;;;;;;5055279;28;20017;-81
2021/09/03 03:53:46;;;;;;;25.10;16.73;;;16.10;99.90;;;;;;5055115;28;19911;-80
2021/09/03 03:56:12;;;;;;;29.48;17.63;;;16.20;99.90;;;;;;5053505;28;20056;-81
2021/09/03 03:58:37;;;;;;;;;;;16.30;99.90;;;;;;5055149;28;20029;-80
2021/09/03 04:01:03;;;;;;;28.77;17.10;;;16.20;99.90;;;;;;5054669;28;19904;-81
2021/09/03 04:03:29;;;;;;;;;;;16.10;99.90;;;;;;5054818;28;20037;-80
2021/09/03 04:05:54;;;;;;;27.23;16.85;;;16.10;99.90;;;;;;5054590;28;19963;-81
2021/09/03 04:08:20;;;;;;;;;;;15.90;99.90;;;;;;5054983;28;20028;-81
2021/09/03 04:10:46;;;;;;;26.70;17.35;;;16.10;99.90;;;;;;5054640;28;19951;-81
2021/09/03 04:13:11;;;;;;;28.85;18.75;;;16.20;99.90;;;;;;5054324;28;20070;-81
2021/09/03 04:15:37;;;;;;;26.90;17.55;;;16.20;99.90;;;;;;5054406;28;20028;-81
2021/09/03 04:18:03;;;;;;;;;;;15.90;99.90;;;;;;5054792;28;20021;-80
2021/09/03 04:20:29;;;;;;;31.20;18.92;;;15.90;99.90;;;;;;5054314;28;19926;-81
2021/09/03 04:22:55;;;;;;;;;;;15.90;99.90;;;;;;5054925;28;20025;-81
2021/09/03 04:25:20;;;;;;;30.05;18.38;;;16.00;99.90;;;;;;5054173;28;20374;-80
2021/09/03 04:27:46;;;;;;;;;;;15.90;99.90;;;;;;5054530;28;20074;-80
2021/09/03 04:30:12;;;;;;;24.65;15.95;;;16.40;99.90;;;;;;5054348;28;19991;-81
2021/09/03 04:32:39;;;;;;;27.13;16.30;;;16.50;99.90;;;;;;5054306;28;20079;-80
2021/09/03 04:35:06;;;;;;;22.60;15.05;;;16.60;99.90;;;;;;5052731;28;20029;-80
2021/09/03 04:37:37;;;;;;;24.85;16.13;;;16.60;99.90;;;;;;5053922;28;20493;-81
2021/09/03 04:40:04;;;;;;;27.10;16.42;;;16.50;99.90;;;;;;5054216;28;20463;-81
2021/09/03 04:42:29;;;;;;;26.40;17.83;;;16.40;99.90;;;;;;5052555;28;20029;-81
2021/09/03 04:44:55;;;;;;;;;;;16.40;99.90;;;;;;5054247;28;20028;-80
2021/09/03 04:47:21;;;;;;;28.02;17.15;;;16.50;99.90;;;;;;5053924;28;20327;-80
2021/09/03 04:49:46;;;;;;;;;;;16.70;99.90;;;;;;5054145;28;20146;-81
2021/09/03 04:52:13;;;;;;;28.35;18.15;;;16.50;99.90;;;;;;5053687;28;19966;-81
2021/09/03 04:54:39;;;;;;;30.95;19.08;;;16.40;99.90;;;;;;5053673;28;20040;-81
2021/09/03 04:57:04;;;;;;;;;;;16.20;99.90;;;;;;5054030;28;20481;-80
2021/09/03 04:59:30;;;;;;;27.30;18.27;;;16.30;99.90;;;;;;5053824;28;19904;-80
2021/09/03 05:01:55;;;;;;;;;;;16.40;99.90;;;;;;5053970;28;20127;-80
2021/09/03 05:04:21;;;;;;;28.42;18.15;;;16.50;99.90;;;;;;5053252;28;19923;-80
2021/09/03 05:06:47;;;;;;;;;;;16.50;99.90;;;;;;5053782;28;20083;-81
2021/09/03 05:09:12;;;;;;;26.42;17.88;;;16.70;99.90;;;;;;5053727;28;19913;-81
2021/09/03 05:11:38;;;;;;;;;;;16.90;99.90;;;;;;5053796;28;20013;-80
2021/09/03 05:14:04;;;;;;;28.73;19.00;;;16.70;99.90;;;;;;5053312;28;20008;-80
2021/09/03 05:16:29;;;;;;;;;;;16.50;99.90;;;;;;5052451;28;20033;-81
2021/09/03 05:18:55;;;;;;;26.98;17.08;;;16.50;99.90;;;;;;5053473;28;20331;-81
2021/09/03 05:21:21;;;;;;;;;;;16.50;99.90;;;;;;5053691;28;20489;-81
2021/09/03 05:23:46;;;;;;;29.05;18.55;;;16.50;99.90;;;;;;5053205;28;20379;-81
2021/09/03 05:26:12;;;;;;;;;;;16.50;99.90;;;;;;5052836;28;20033;-81
2021/09/03 05:28:38;;;;;;;26.65;16.27;;;16.50;99.90;;;;;;5051949;28;19905;-82
2021/09/03 05:31:04;;;;;;;29.55;17.80;;;16.70;99.90;;;;;;5053271;28;20477;-82
2021/09/03 05:33:30;;;;;;;;;;;17.00;99.90;;;;;;5053568;28;20028;-80
2021/09/03 05:35:55;;;;;;;30.10;18.23;;;17.20;99.90;;;;;;5053099;28;20364;-81
2021/09/03 05:38:21;;;;;;;;;;;17.20;99.90;;;;;;5053524;28;20017;-80
2021/09/03 05:40:47;;;;;;;32.63;19.63;;;17.30;99.90;;;;;;5053246;28;20392;-81
2021/09/03 05:43:12;;;;;;;;;;;17.20;99.90;;;;;;5052192;28;20029;-80
2021/09/03 05:45:38;;;;;;;28.05;17.88;;;17.00;99.90;;;;;;5053011;28;19951;-81
2021/09/03 05:48:04;;;;;;;;;;;16.90;99.90;;;;;;5052077;28;20552;-81
2021/09/03 05:50:30;;;;;;;27.67;16.73;;;16.90;99.90;;;;;;5053016;28;20440;-81
2021/09/03 05:52:55;;;;;;;;;;;17.20;99.90;;;;;;5053793;28;20100;-80
2021/09/03 05:55:21;;;;;;;26.15;18.02;;;17.40;99.90;;;;;;5052909;28;20333;-80
2021/09/03 05:57:48;;;;;;;;;;;17.20;99.90;;;;;;5053386;28;20021;-80
2021/09/03 06:00:14;;;;;;;26.05;17.27;;;17.10;99.90;;;;;;5052936;28;19920;-81
2021/09/03 06:02:40;;;;;;;29.02;19.45;;;17.10;99.90;;;;;;5053362;28;20392;-80
2021/09/03 06:05:06;;;;;;;;;;;16.90;99.90;;;;;;5051531;28;20132;-82
2021/09/03 06:07:32;;;;;;;27.42;18.77;;;17.00;99.90;;;;;;5052870;28;19908;-81
2021/09/03 06:09:57;;;;;;;;;;;17.10;99.90;;;;;;5053316;28;20440;-80
2021/09/03 06:12:23;;;;;;;29.33;18.13;;;17.10;99.90;;;;;;5052658;28;19916;-81
2021/09/03 06:14:49;;;;;;;;;;;17.50;99.90;;;;;;5052986;28;20021;-81
2021/09/03 06:17:17;;;;;;;29.90;18.67;;;17.80;99.90;;;;;;5052888;28;19905;-81
2021/09/03 06:19:43;;;;;;;33.50;19.15;;;17.80;99.90;;;;;;5052717;28;20028;-81
2021/09/03 06:22:09;;;;;;;;;;;17.80;99.90;;;;;;5053099;28;20049;-80
2021/09/03 06:24:35;;;;;;;27.90;18.63;;;17.90;99.90;;;;;;5052834;28;19989;-81
2021/09/03 06:27:06;;;;;;;27.75;17.75;;;18.00;99.90;;;;;;5052534;28;20029;-81
2021/09/03 06:32:13;;;;;;;42.20;19.08;;;18.00;99.90;;;;;;5052390;28;20029;-80
2021/09/03 06:34:44;;;;;;;101.93;25.95;;;17.80;99.90;;;;;;5051162;28;20444;-81
2021/09/03 06:37:11;;;;;;;38.75;19.15;;;17.80;99.90;;;;;;5053212;28;20043;-80
2021/09/03 06:39:37;;;;;;;26.23;17.35;;;18.10;99.90;;;;;;5056214;28;20025;-81
2021/09/03 06:42:05;;;;;;;26.90;18.35;;;18.30;99.90;;;;;;5056345;28;20371;-80
2021/09/03 06:44:31;;;;;;;32.45;17.45;;;18.60;99.90;;;;;;5056062;28;20029;-81
2021/09/03 06:46:57;;;;;;;28.17;18.75;;;18.60;99.90;;;;;;5055953;28;20104;-80
2021/09/03 06:49:23;;;;;;;29.13;18.80;;;18.70;99.90;;;;;;5054727;28;20120;-80
2021/09/03 06:51:49;;;;;;;33.47;18.80;;;18.90;99.90;;;;;;5055927;28;20021;-80
2021/09/03 06:54:15;;;;;;;29.20;18.58;;;18.90;99.90;;;;;;5055937;28;20032;-81
2021/09/03 06:56:41;;;;;;;29.80;17.75;;;19.10;99.90;;;;;;5054457;28;20025;-81
2021/09/03 06:59:06;;;;;;;;;;;19.30;99.90;;;;;;5056300;28;20057;-80
2021/09/03 07:01:32;;;;;;;28.80;19.48;;;19.30;99.90;;;;;;5055943;28;19942;-81
2021/09/03 07:03:58;;;;;;;35.95;17.98;;;19.20;99.90;;;;;;5055531;28;20413;-81
2021/09/03 07:06:23;;;;;;;35.03;19.83;;;19.20;99.90;;;;;;5055644;28;20029;-81
2021/09/03 07:08:49;;;;;;;28.42;17.95;;;19.20;99.90;;;;;;5056025;28;20094;-81
2021/09/03 07:11:15;;;;;;;30.98;18.50;;;19.20;99.90;;;;;;5056200;28;20485;-81
2021/09/03 07:13:41;;;;;;;26.50;17.98;;;19.30;99.90;;;;;;5055750;28;20492;-81
2021/09/03 07:16:07;;;;;;;27.27;18.63;;;19.20;99.90;;;;;;5055738;28;20023;-81
2021/09/03 07:18:33;;;;;;;26.75;18.25;;;19.40;99.90;;;;;;5055472;28;20397;-80
2021/09/03 07:20:59;;;;;;;24.85;17.17;;;19.50;99.90;;;;;;5055671;28;20021;-81
2021/09/03 07:23:24;;;;;;;28.73;19.10;;;19.50;99.90;;;;;;5055399;28;20100;-81
2021/09/03 07:25:50;;;;;;;31.20;19.55;;;19.40;99.90;;;;;;5054014;28;20551;-81
2021/09/03 07:28:16;;;;;;;30.48;19.17;;;19.60;99.90;;;;;;5055110;28;20029;-82
2021/09/03 07:30:42;;;;;;;26.63;17.10;;;19.80;99.90;;;;;;5055173;28;20438;-81
2021/09/03 07:33:08;;;;;;;41.53;21.52;;;20.10;99.90;;;;;;5055313;28;20025;-81
2021/09/03 07:35:34;;;;;;;28.30;18.45;;;19.90;99.90;;;;;;5055202;28;20024;-81
2021/09/03 07:38:00;;;;;;;28.17;19.70;;;19.80;99.90;;;;;;5055131;28;20049;-81
2021/09/03 07:40:26;;;;;;;24.15;18.30;;;20.10;99.90;;;;;;5053818;28;20037;-81
2021/09/03 07:42:53;;;;;;;29.70;18.25;;;20.40;99.90;;;;;;5055044;28;20511;-82
2021/09/03 07:45:19;;;;;;;22.52;17.85;;;20.60;99.90;;;;;;5053762;28;20037;-81
2021/09/03 07:47:44;;;;;;;35.15;18.02;;;20.90;99.90;;;;;;5054262;28;20556;-80
2021/09/03 07:50:11;;;;;;;29.17;18.38;;;21.30;99.90;;;;;;5054906;28;20021;-80
2021/09/03 07:52:36;;;;;;;29.05;16.95;;;21.60;99.90;;;;;;5055493;28;20143;-81
2021/09/03 07:55:03;;;;;;;26.73;16.35;;;21.60;99.90;;;;;;5054866;28;20071;-82
2021/09/03 07:57:29;;;;;;;26.55;15.85;;;22.10;99.90;;;;;;5054779;28;20017;-81
2021/09/03 07:59:57;;;;;;;24.95;15.93;;;22.70;99.90;;;;;;5053470;28;20025;-82
2021/09/03 08:02:22;;;;;;;24.90;15.95;;;22.90;99.90;;;;;;5036878;28;20025;-81
2021/09/03 08:04:48;;;;;;;26.15;16.92;;;22.90;99.90;;;;;;5054361;28;20493;-81
2021/09/03 08:07:14;;;;;;;26.38;16.33;;;22.60;99.90;;;;;;5054547;28;20017;-81
2021/09/03 08:09:40;;;;;;;24.02;16.02;;;22.60;99.90;;;;;;5054608;28;20020;-81
2021/09/03 08:12:06;;;;;;;23.70;15.52;;;22.60;99.90;;;;;;5054477;28;20025;-80
2021/09/03 08:14:32;;;;;;;25.92;16.50;;;22.10;99.90;;;;;;5053147;28;20374;-80
2021/09/03 08:16:58;;;;;;;26.67;16.83;;;22.20;99.90;;;;;;5054385;28;20547;-80
2021/09/03 08:19:24;;;;;;;22.55;15.73;;;22.40;99.90;;;;;;5053050;28;20030;-81
2021/09/03 08:21:49;;;;;;;23.02;16.67;;;22.50;99.90;;;;;;5054291;28;20049;-81
2021/09/03 08:24:15;;;;;;;26.42;16.00;;;22.30;99.90;;;;;;5052945;28;20033;-81
2021/09/03 08:26:42;;;;;;;22.25;15.90;;;21.90;99.90;;;;;;5054475;28;20477;-81
2021/09/03 08:29:07;;;;;;;55.17;18.85;;;21.80;99.90;;;;;;5054164;28;20025;-81
2021/09/03 08:31:33;;;;;;;21.48;14.63;;;21.90;99.90;;;;;;5052831;28;20024;-80
2021/09/03 08:33:59;;;;;;;23.00;13.43;;;22.00;99.90;;;;;;5054136;28;20104;-80
2021/09/03 08:36:25;;;;;;;25.60;14.68;;;21.90;99.90;;;;;;5054010;28;20021;-81
2021/09/03 08:38:50;;;;;;;19.77;14.05;;;21.70;99.90;;;;;;5052784;28;20028;-80
2021/09/03 08:41:18;;;;;;;22.90;15.23;;;21.50;99.90;;;;;;5053922;28;20433;-81
2021/09/03 08:43:44;;;;;;;21.23;13.73;;;21.40;99.90;;;;;;5053876;28;20392;-80
2021/09/03 08:46:11;;;;;;;22.70;14.48;;;21.50;99.90;;;;;;5053770;28;20142;-80
2021/09/03 08:48:39;;;;;;;23.77;14.63;;;22.00;99.90;;;;;;5052541;28;20052;-81
2021/09/03 08:51:05;;;;;;;24.35;15.63;;;22.10;99.90;;;;;;5053693;28;20032;-80
2021/09/03 08:53:31;;;;;;;25.88;16.05;;;21.60;99.90;;;;;;5053669;28;20021;-81
2021/09/03 08:55:56;;;;;;;20.52;13.63;;;21.30;99.90;;;;;;5053741;28;20025;-80
2021/09/03 08:58:22;;;;;;;22.77;13.50;;;21.60;99.90;;;;;;5053602;28;20096;-80
2021/09/03 09:01:04;;;;;;;20.27;13.25;;;22.10;99.90;;;;;;5052555;28;20025;-80
2021/09/03 09:03:37;;;;;;;26.95;14.77;;;21.90;99.90;;;;;;5052083;28;20516;-81
2021/09/03 09:06:04;;;;;;;18.85;12.57;;;22.00;99.90;;;;;;5053676;28;20393;-80
2021/09/03 09:08:31;;;;;;;23.23;13.85;;;22.30;99.90;;;;;;5053486;28;20025;-80
2021/09/03 09:11:13;;;;;;;23.05;13.60;;;22.60;99.90;;;;;;5053722;28;20096;-81
2021/09/03 09:13:44;;;;;;;22.15;13.63;;;22.50;99.90;;;;;;5053757;28;20021;-79
2021/09/03 09:16:19;;;;;;;23.13;13.45;;;22.40;99.90;;;;;;5053733;28;20462;-81
2021/09/03 09:18:49;;;;;;;20.45;12.82;;;22.50;99.90;;;;;;5052157;28;20427;-80
2021/09/03 09:21:34;;;;;;;22.30;12.43;;;22.50;99.90;;;;;;5053626;28;20455;-81
2021/09/03 09:24:09;;;;;;;23.58;14.05;;;22.40;99.90;;;;;;5053203;28;20024;-81
2021/09/03 09:26:51;;;;;;;18.77;12.67;;;22.10;99.90;;;;;;5051892;28;20493;-81
2021/09/03 09:29:29;;;;;;;22.80;14.15;;;22.40;99.90;;;;;;5053497;28;20283;-81
2021/09/03 09:31:57;;;;;;;23.08;13.25;;;22.40;99.90;;;;;;5053156;28;20037;-81
2021/09/03 09:34:28;;;;;;;20.88;12.80;;;22.40;99.90;;;;;;5053189;28;20512;-80
2021/09/03 09:36:55;;;;;;;20.05;12.38;;;22.60;99.90;;;;;;5053486;28;20123;-80
2021/09/03 09:39:22;;;;;;;19.58;11.60;;;22.90;99.80;;;;;;5053367;28;20032;-81
2021/09/03 09:42:00;;;;;;;19.77;12.93;;;23.40;99.40;;;;;;5053400;28;20021;-81
2021/09/03 09:44:35;;;;;;;20.65;11.88;;;23.50;98.70;;;;;;5053296;28;20025;-81
2021/09/03 09:47:14;;;;;;;19.70;12.80;;;23.40;98.80;;;;;;5053295;28;20027;-82
2021/09/03 09:49:40;;;;;;;20.60;13.95;;;23.60;98.60;;;;;;5053293;28;20076;-81
2021/09/03 09:52:07;;;;;;;28.50;12.77;;;23.70;98.00;;;;;;5053031;28;20017;-81
2021/09/03 09:54:33;;;;;;;23.33;12.07;;;24.00;97.90;;;;;;5051746;28;20392;-81
2021/09/03 09:57:02;;;;;;;17.40;12.50;;;24.00;97.40;;;;;;5051606;28;20017;-81
2021/09/03 09:59:29;;;;;;;18.45;12.63;;;24.20;97.40;;;;;;5053093;28;20470;-81
2021/09/03 10:01:58;;;;;;;21.75;12.80;;;24.90;97.00;;;;;;5051650;28;20018;-80
2021/09/03 10:04:26;;;;;;;18.25;11.10;;;25.20;95.90;;;;;;5051368;28;20502;-79
2021/09/03 10:06:54;;;;;;;20.35;11.30;;;25.70;95.40;;;;;;5052792;28;20031;-79
2021/09/03 10:09:25;;;;;;;18.77;11.15;;;25.90;94.70;;;;;;5052875;28;20482;-80
2021/09/03 10:11:53;;;;;;;22.40;11.68;;;26.60;94.30;;;;;;5054913;28;20047;-78
2021/09/03 10:14:31;;;;;;;24.27;11.80;;;27.50;91.60;;;;;;5056765;28;20032;-79
2021/09/03 10:16:58;;;;;;;21.05;13.60;;;26.90;92.60;;;;;;5055180;28;20025;-80
2021/09/03 10:19:28;;;;;;;17.75;10.90;;;26.70;92.60;;;;;;5055321;28;20029;-79
2021/09/03 10:22:06;;;;;;;14.88;11.02;;;27.50;91.50;;;;;;5055291;28;20053;-79
2021/09/03 10:24:32;;;;;;;18.73;9.73;;;27.30;91.30;;;;;;5056726;28;20448;-79
2021/09/03 10:26:59;;;;;;;24.98;12.35;;;27.50;90.80;;;;;;5056388;28;20025;-80
2021/09/03 10:29:46;;;;;;;19.35;12.05;;;27.70;89.70;;;;;;5056475;28;20032;-79
2021/09/03 10:32:19;;;;;;;17.73;11.25;;;26.80;90.60;;;;;;5054871;28;20112;-79
2021/09/03 10:34:54;;;;;;;20.33;11.02;;;26.40;91.20;;;;;;5056695;28;20520;-78
2021/09/03 10:37:28;;;;;;;17.98;11.65;;;26.90;91.50;;;;;;5054787;28;20025;-80
2021/09/03 10:40:08;;;;;;;17.98;12.35;;;27.30;91.00;;;;;;5056545;28;20025;-79
2021/09/03 10:42:37;;;;;;;22.58;15.90;;;27.60;90.70;;;;;;5056502;28;20025;-79
2021/09/03 10:45:08;;;;;;;24.77;13.32;;;27.30;91.00;;;;;;5054870;28;20032;-79
2021/09/03 10:47:46;;;;;;;17.45;11.57;;;26.80;91.40;;;;;;5049195;28;20104;-79
2021/09/03 10:50:34;;;;;;;19.58;12.13;;;27.30;90.90;;;;;;5048224;28;20025;-79
2021/09/03 10:53:07;;;;;;;15.35;11.07;;;27.70;90.00;;;;;;5054973;28;20021;-79
2021/09/03 10:55:52;;;;;;;17.75;11.98;;;27.50;90.00;;;;;;5055885;28;20025;-78
2021/09/03 10:58:37;;;;;;;19.65;11.25;;;28.20;87.60;;;;;;5055982;28;20021;-78
2021/09/03 11:01:10;;;;;;;19.45;11.23;;;28.40;86.50;;;;;;5055891;28;20032;-79
2021/09/03 11:03:36;;;;;;;19.08;11.55;;;28.40;84.80;;;;;;5054256;28;20136;-79
2021/09/03 11:06:05;;;;;;;22.13;12.23;;;28.40;84.80;;;;;;5054624;28;20183;-79
2021/09/03 11:08:41;;;;;;;16.98;9.82;;;28.10;84.90;;;;;;5055682;28;20074;-79
2021/09/03 11:11:27;;;;;;;17.48;10.95;;;28.20;85.80;;;;;;5055575;28;20112;-79
2021/09/03 11:13:54;;;;;;;16.40;10.13;;;27.90;86.20;;;;;;5056149;28;20024;-79
2021/09/03 11:16:33;;;;;;;19.10;10.85;;;28.60;84.30;;;;;;5054271;28;20025;-79
2021/09/03 11:19:11;;;;;;;20.30;12.32;;;28.40;84.50;;;;;;5054277;28;20017;-80
2021/09/03 11:21:44;;;;;;;16.38;10.77;;;28.40;84.10;;;;;;5055441;28;20029;-79
2021/09/03 11:24:11;;;;;;;17.30;11.02;;;29.20;83.40;;;;;;5054294;28;20017;-79
2021/09/03 11:26:38;;;;;;;15.95;9.13;;;30.90;80.30;;;;;;5055416;28;20025;-81
2021/09/03 11:29:20;;;;;;;13.38;8.82;;;37.00;67.80;;;;;;5055332;28;20032;-82
2021/09/03 11:32:05;;;;;;;16.42;9.20;;;41.10;50.60;;;;;;5055812;28;20029;-81
2021/09/03 11:34:57;;;;;;;13.05;9.48;;;38.90;49.60;;;;;;5055142;28;20048;-81
2021/09/03 11:37:29;;;;;;;15.60;9.63;;;37.70;50.90;;;;;;5055534;28;20078;-81
2021/09/03 11:40:01;;;;;;;20.35;9.38;;;35.90;51.40;;;;;;5055515;28;20025;-80
2021/09/03 11:42:31;;;;;;;15.32;8.57;;;35.40;52.90;;;;;;5055286;28;20021;-80
2021/09/03 11:45:04;;;;;;;12.27;7.65;;;38.00;51.30;;;;;;5053541;28;20036;-80
2021/09/03 11:47:46;;;;;;;14.48;8.80;;;39.10;49.40;;;;;;5055532;28;20025;-81
2021/09/03 11:50:15;;;;;;;12.88;8.18;;;40.30;46.40;;;;;;5053471;28;20397;-81
2021/09/03 11:52:42;;;;;;;15.50;8.93;;;41.50;44.50;;;;;;5054930;28;20021;-80
2021/09/03 11:55:17;;;;;;;15.30;8.65;;;40.00;45.10;;;;;;5055116;28;20465;-81
2021/09/03 11:58:00;;;;;;;12.02;8.60;;;41.40;44.50;;;;;;5053218;28;20033;-81
2021/09/03 12:00:31;;;;;;;12.23;8.13;;;40.90;41.90;;;;;;5053236;28;20017;-81
2021/09/03 12:02:57;;;;;;;13.77;7.97;;;38.90;44.70;;;;;;5054459;28;20021;-80
2021/09/03 12:05:24;;;;;;;12.88;8.18;;;38.80;45.90;;;;;;5054916;28;20071;-81
2021/09/03 12:08:03;;;;;;;15.18;8.77;;;39.50;44.20;;;;;;5053336;28;20032;-81
2021/09/03 12:10:41;;;;;;;13.05;7.10;;;39.60;44.20;;;;;;5053207;28;20029;-81
2021/09/03 12:13:16;;;;;;;13.63;7.70;;;40.50;43.70;;;;;;5052907;28;20029;-80
2021/09/03 12:15:44;;;;;;;12.40;8.10;;;40.60;44.70;;;;;;5055021;28;20024;-81
2021/09/03 12:18:23;;;;;;;13.95;7.60;;;41.30;41.90;;;;;;5053074;28;20037;-81
2021/09/03 12:20:56;;;;;;;12.18;8.48;;;43.00;42.00;;;;;;5053059;28;20017;-81
2021/09/03 12:23:23;;;;;;;12.00;8.10;;;45.30;40.00;;;;;;5054352;28;20393;-83
2021/09/03 12:25:49;;;;;;;14.50;8.65;;;46.00;38.80;;;;;;5052952;28;20017;-82
2021/09/03 12:28:20;;;;;;;11.43;7.88;;;47.80;37.80;;;;;;5052952;28;20029;-82
2021/09/03 12:30:51;;;;;;;15.32;8.45;;;47.80;37.00;;;;;;5054831;28;20049;-82
2021/09/03 12:33:45;;;;;;;17.85;8.55;;;47.40;36.00;;;;;;5053959;28;20230;-82
2021/09/03 12:36:12;;;;;;;15.27;8.77;;;47.00;36.50;;;;;;5052635;28;20385;-82
2021/09/03 12:38:43;;;;;;;12.65;8.65;;;46.10;36.50;;;;;;5053970;28;20028;-83
2021/09/03 12:41:20;;;;;;;18.70;8.02;;;46.40;36.70;;;;;;5054536;28;20025;-82
2021/09/03 12:43:54;;;;;;;12.25;8.40;;;46.70;37.50;;;;;;5052453;28;20021;-82
2021/09/03 12:46:20;;;;;;;15.52;9.20;;;49.10;35.50;;;;;;5054287;28;20028;-82
2021/09/03 12:49:05;;;;;;;12.85;9.90;;;50.70;34.90;;;;;;5052551;28;20039;-83
2021/09/03 12:51:34;;;;;;;15.25;10.02;;;50.20;33.80;;;;;;5054025;28;20025;-82
2021/09/03 12:54:01;;;;;;;11.98;9.77;;;50.50;34.10;;;;;;5052327;28;20033;-83